Time,TemperatureF,DewpointF,PressureIn,WindDirection,WindDirectionDegrees,WindSpeedMPH,WindSpeedGustMPH,Humidity,HourlyPrecipIn,Conditions,Clouds,dailyrainin,SoftwareType,DateUTC
2013-01-05 00:03:00,25.2,21.6,30.21,SSW,202,2.2,-999.0,86,-99.99,,,0.00,Acu-Link.com,2013-01-05 05:03:00,
2013-01-05 00:18:00,25.2,21.6,30.20,WSW,247,2.2,-999.0,86,-99.99,,,0.00,Acu-Link.com,2013-01-05 05:18:00,
2013-01-05 00:33:00,25.0,21.4,30.20,SW,225,3.2,-999.0,86,-99.99,,,0.00,Acu-Link.com,2013-01-05 05:33:00,
2013-01-05 00:48:00,25.3,21.4,30.20,WSW,247,2.7,-999.0,85,-99.99,,,0.00,Acu-Link.com,2013-01-05 05:48:00,
2013-01-05 01:04:00,25.5,21.6,30.20,WSW,247,2.7,-999.0,85,-99.99,,,0.00,Acu-Link.com,2013-01-05 06:04:00,
2013-01-05 01:19:00,25.5,21.6,30.19,WSW,247,2.7,-999.0,85,-99.99,,,0.00,Acu-Link.com,2013-01-05 06:19:00,
2013-01-05 01:34:00,25.3,21.4,30.20,WSW,247,1.7,-999.0,85,-99.99,,,0.00,Acu-Link.com,2013-01-05 06:34:00,
2013-01-05 01:49:00,25.5,21.6,30.19,SW,225,2.7,-999.0,85,-99.99,,,0.00,Acu-Link.com,2013-01-05 06:49:00,
2013-01-05 02:04:00,25.5,21.6,30.19,SW,225,2.2,-999.0,85,-99.99,,,0.00,Acu-Link.com,2013-01-05 07:04:00,
2013-01-05 02:19:00,25.2,21.3,30.19,WSW,247,2.2,-999.0,85,-99.99,,,0.00,Acu-Link.com,2013-01-05 07:19:00,
2013-01-05 02:34:00,24.1,20.5,30.19,WSW,247,2.7,-999.0,86,-99.99,,,0.00,Acu-Link.com,2013-01-05 07:34:00,
2013-01-05 02:49:00,23.5,19.9,30.19,WSW,247,2.2,-999.0,86,-99.99,,,0.00,Acu-Link.com,2013-01-05 07:49:00,
2013-01-05 03:04:00,23.5,20.2,30.20,West,270,0.0,-999.0,87,-99.99,,,0.00,Acu-Link.com,2013-01-05 08:04:00,
2013-01-05 03:19:00,23.4,20.1,30.21,West,270,0.0,-999.0,87,-99.99,,,0.00,Acu-Link.com,2013-01-05 08:19:00,
2013-01-05 03:35:00,23.0,19.7,30.20,NNE,22,0.0,-999.0,87,-99.99,,,0.00,Acu-Link.com,2013-01-05 08:35:00,
2013-01-05 03:50:00,22.5,19.2,30.20,West,270,0.0,-999.0,87,-99.99,,,0.00,Acu-Link.com,2013-01-05 08:50:00,
2013-01-05 04:07:00,21.6,18.3,30.20,ENE,67,0.0,-999.0,87,-99.99,,,0.00,Acu-Link.com,2013-01-05 09:07:00,
2013-01-05 04:22:00,20.7,17.2,30.19,East,90,0.0,-999.0,86,-99.99,,,0.00,Acu-Link.com,2013-01-05 09:22:00,
2013-01-05 04:38:00,20.8,17.3,30.19,ENE,67,0.0,-999.0,86,-99.99,,,0.00,Acu-Link.com,2013-01-05 09:38:00,
2013-01-05 04:53:00,19.9,16.4,30.20,West,270,0.0,-999.0,86,-99.99,,,0.00,Acu-Link.com,2013-01-05 09:53:00,
2013-01-05 05:08:00,21.0,18.0,30.19,West,270,0.0,-999.0,88,-99.99,,,0.00,Acu-Link.com,2013-01-05 10:08:00,
2013-01-05 05:23:00,21.6,18.6,30.21,NNW,337,0.0,-999.0,88,-99.99,,,0.00,Acu-Link.com,2013-01-05 10:23:00,
2013-01-05 05:38:00,20.8,17.8,30.20,ESE,112,0.0,-999.0,88,-99.99,,,0.00,Acu-Link.com,2013-01-05 10:38:00,
2013-01-05 05:53:00,19.6,16.6,30.23,SW,225,0.0,-999.0,88,-99.99,,,0.00,Acu-Link.com,2013-01-05 10:53:00,
2013-01-05 06:08:00,19.6,16.6,30.20,North,0,0.0,-999.0,88,-99.99,,,0.00,Acu-Link.com,2013-01-05 11:08:00,
2013-01-05 06:23:00,19.0,16.0,30.21,SE,135,0.0,-999.0,88,-99.99,,,0.00,Acu-Link.com,2013-01-05 11:23:00,
2013-01-05 06:38:00,18.3,15.4,30.20,East,90,0.0,-999.0,88,-99.99,,,0.00,Acu-Link.com,2013-01-05 11:38:00,
2013-01-05 06:53:00,17.6,14.7,30.22,SW,225,0.0,-999.0,88,-99.99,,,0.00,Acu-Link.com,2013-01-05 11:53:00,
2013-01-05 07:09:00,18.3,15.1,30.21,NNW,337,0.0,-999.0,87,-99.99,,,0.00,Acu-Link.com,2013-01-05 12:09:00,
2013-01-05 07:24:00,18.7,15.5,30.21,West,270,0.0,-999.0,87,-99.99,,,0.00,Acu-Link.com,2013-01-05 12:24:00,
2013-01-05 07:39:00,18.0,15.1,30.22,NE,45,0.0,-999.0,88,-99.99,,,0.00,Acu-Link.com,2013-01-05 12:39:00,
2013-01-05 07:54:00,17.6,14.7,30.21,WSW,247,0.0,-999.0,88,-99.99,,,0.00,Acu-Link.com,2013-01-05 12:54:00,
2013-01-05 08:09:00,18.0,15.1,30.22,WSW,247,0.0,-999.0,88,-99.99,,,0.00,Acu-Link.com,2013-01-05 13:09:00,
2013-01-05 08:24:00,19.0,16.0,30.21,West,270,0.0,-999.0,88,-99.99,,,0.00,Acu-Link.com,2013-01-05 13:24:00,
2013-01-05 08:39:00,19.9,16.9,30.21,NNW,337,0.0,-999.0,88,-99.99,,,0.00,Acu-Link.com,2013-01-05 13:39:00,
2013-01-05 08:54:00,21.7,19.0,30.21,SW,225,0.0,-999.0,89,-99.99,,,0.00,Acu-Link.com,2013-01-05 13:54:00,
2013-01-05 09:09:00,23.4,20.6,30.22,WSW,247,0.0,-999.0,89,-99.99,,,0.00,Acu-Link.com,2013-01-05 14:09:00,
2013-01-05 09:25:00,24.6,21.6,30.20,WSW,247,2.2,-999.0,88,-99.99,,,0.00,Acu-Link.com,2013-01-05 14:25:00,
2013-01-05 09:40:00,27.3,23.4,30.20,WSW,247,2.7,-999.0,85,-99.99,,,0.00,Acu-Link.com,2013-01-05 14:40:00,
2013-01-05 09:55:00,27.3,23.1,30.19,WSW,247,2.2,-999.0,84,-99.99,,,0.00,Acu-Link.com,2013-01-05 14:55:00,
2013-01-05 10:10:00,28.8,24.3,30.19,WSW,247,3.2,-999.0,83,-99.99,,,0.00,Acu-Link.com,2013-01-05 15:10:00,
2013-01-05 10:25:00,29.8,24.7,30.19,WSW,247,1.7,-999.0,81,-99.99,,,0.00,Acu-Link.com,2013-01-05 15:25:00,
2013-01-05 10:40:00,33.4,27.3,30.19,SSW,202,0.0,-999.0,78,-99.99,,,0.00,Acu-Link.com,2013-01-05 15:40:00,
2013-01-05 10:55:00,34.0,26.9,30.18,SSW,202,2.7,-999.0,75,-99.99,,,0.00,Acu-Link.com,2013-01-05 15:55:00,
2013-01-05 11:10:00,34.9,28.4,30.18,WSW,247,2.7,-999.0,77,-99.99,,,0.00,Acu-Link.com,2013-01-05 16:10:00,
2013-01-05 11:25:00,36.7,29.2,30.16,SW,225,4.2,-999.0,74,-99.99,,,0.00,Acu-Link.com,2013-01-05 16:25:00,
2013-01-05 11:41:00,37.4,29.6,30.16,SW,225,3.7,-999.0,73,-99.99,,,0.00,Acu-Link.com,2013-01-05 16:41:00,
2013-01-05 11:56:00,38.1,29.5,30.15,SW,225,4.7,-999.0,71,-99.99,,,0.00,Acu-Link.com,2013-01-05 16:56:00,
2013-01-05 12:11:00,39.7,30.4,30.13,WSW,247,6.8,-999.0,69,-99.99,,,0.00,Acu-Link.com,2013-01-05 17:11:00,
2013-01-05 12:26:00,40.3,30.2,30.12,SSW,202,5.8,-999.0,67,-99.99,,,0.00,Acu-Link.com,2013-01-05 17:26:00,
2013-01-05 12:41:00,40.6,29.8,30.12,WSW,247,6.8,-999.0,65,-99.99,,,0.00,Acu-Link.com,2013-01-05 17:41:00,
2013-01-05 12:56:00,40.8,30.7,30.11,SW,225,7.8,-999.0,67,-99.99,,,0.00,Acu-Link.com,2013-01-05 17:56:00,
2013-01-05 13:11:00,40.8,30.7,30.10,SW,225,7.8,-999.0,67,-99.99,,,0.00,Acu-Link.com,2013-01-05 18:11:00,
2013-01-05 13:26:00,40.5,30.8,30.10,WSW,247,5.8,-999.0,68,-99.99,,,0.00,Acu-Link.com,2013-01-05 18:26:00,
2013-01-05 13:41:00,40.3,30.2,30.09,SW,225,5.3,-999.0,67,-99.99,,,0.00,Acu-Link.com,2013-01-05 18:41:00,
2013-01-05 13:57:00,41.5,31.0,30.08,SW,225,5.8,-999.0,66,-99.99,,,0.00,Acu-Link.com,2013-01-05 18:57:00,
2013-01-05 14:12:00,41.0,30.5,30.08,SW,225,5.3,-999.0,66,-99.99,,,0.00,Acu-Link.com,2013-01-05 19:12:00,
2013-01-05 14:27:00,41.5,30.6,30.07,SW,225,6.8,-999.0,65,-99.99,,,0.00,Acu-Link.com,2013-01-05 19:27:00,
2013-01-05 14:42:00,41.9,30.6,30.06,SW,225,5.3,-999.0,64,-99.99,,,0.00,Acu-Link.com,2013-01-05 19:42:00,
2013-01-05 14:57:00,42.1,31.2,30.05,SW,225,4.2,-999.0,65,-99.99,,,0.00,Acu-Link.com,2013-01-05 19:57:00,
2013-01-05 15:12:00,41.9,30.2,30.05,WSW,247,3.7,-999.0,63,-99.99,,,0.00,Acu-Link.com,2013-01-05 20:12:00,
2013-01-05 15:27:00,41.9,30.6,30.05,South,180,2.7,-999.0,64,-99.99,,,0.00,Acu-Link.com,2013-01-05 20:27:00,
2013-01-05 15:42:00,42.8,30.3,30.04,WSW,247,3.7,-999.0,61,-99.99,,,0.00,Acu-Link.com,2013-01-05 20:42:00,
2013-01-05 15:57:00,41.7,30.0,30.03,SSW,202,2.7,-999.0,63,-99.99,,,0.00,Acu-Link.com,2013-01-05 20:57:00,
2013-01-05 16:13:00,41.9,30.2,30.05,West,270,2.7,-999.0,63,-99.99,,,0.00,Acu-Link.com,2013-01-05 21:13:00,
2013-01-05 16:28:00,41.7,30.8,30.03,WSW,247,3.7,-999.0,65,-99.99,,,0.00,Acu-Link.com,2013-01-05 21:28:00,
2013-01-05 16:43:00,41.2,30.0,30.02,South,180,2.7,-999.0,64,-99.99,,,0.00,Acu-Link.com,2013-01-05 21:43:00,
2013-01-05 16:58:00,40.6,30.1,30.02,ESE,112,2.2,-999.0,66,-99.99,,,0.00,Acu-Link.com,2013-01-05 21:58:00,
2013-01-05 17:13:00,40.5,30.0,30.01,SW,225,3.2,-999.0,66,-99.99,,,0.00,Acu-Link.com,2013-01-05 22:13:00,
2013-01-05 17:28:00,40.3,29.9,30.03,WSW,247,3.7,-999.0,66,-99.99,,,0.00,Acu-Link.com,2013-01-05 22:28:00,
2013-01-05 17:43:00,40.1,30.0,30.02,SW,225,3.2,-999.0,67,-99.99,,,0.00,Acu-Link.com,2013-01-05 22:43:00,
2013-01-05 17:58:00,39.7,30.4,30.04,WSW,247,3.2,-999.0,69,-99.99,,,0.00,Acu-Link.com,2013-01-05 22:58:00,
2013-01-05 18:13:00,39.0,30.8,30.02,ESE,112,0.0,-999.0,72,-99.99,,,0.00,Acu-Link.com,2013-01-05 23:13:00,
2013-01-05 18:29:00,38.7,30.8,30.03,SW,225,0.0,-999.0,73,-99.99,,,0.00,Acu-Link.com,2013-01-05 23:29:00,
2013-01-05 18:44:00,38.3,30.8,30.02,SW,225,0.0,-999.0,74,-99.99,,,0.00,Acu-Link.com,2013-01-05 23:44:00,
2013-01-05 18:59:00,38.5,30.6,30.02,WSW,247,2.2,-999.0,73,-99.99,,,0.00,Acu-Link.com,2013-01-05 23:59:00,
2013-01-05 19:14:00,38.7,30.1,30.02,West,270,1.7,-999.0,71,-99.99,,,0.00,Acu-Link.com,2013-01-06 00:14:00,
2013-01-05 19:29:00,38.8,30.2,30.02,WSW,247,2.2,-999.0,71,-99.99,,,0.00,Acu-Link.com,2013-01-06 00:29:00,
2013-01-05 19:44:00,38.7,30.1,30.02,West,270,0.0,-999.0,71,-99.99,,,0.00,Acu-Link.com,2013-01-06 00:44:00,
2013-01-05 20:00:00,38.7,30.1,30.03,SW,225,0.0,-999.0,71,-99.99,,,0.00,Acu-Link.com,2013-01-06 01:00:00,
2013-01-05 20:15:00,38.7,30.1,30.02,SW,225,2.2,-999.0,71,-99.99,,,0.00,Acu-Link.com,2013-01-06 01:15:00,
2013-01-05 20:30:00,38.7,30.1,30.02,SW,225,2.7,-999.0,71,-99.99,,,0.00,Acu-Link.com,2013-01-06 01:30:00,
2013-01-05 20:45:00,38.7,30.1,30.02,SW,225,3.2,-999.0,71,-99.99,,,0.00,Acu-Link.com,2013-01-06 01:45:00,
2013-01-05 21:00:00,38.5,29.9,30.01,SSW,202,3.2,-999.0,71,-99.99,,,0.00,Acu-Link.com,2013-01-06 02:00:00,
2013-01-05 21:15:00,38.5,29.6,30.02,WSW,247,2.7,-999.0,70,-99.99,,,0.00,Acu-Link.com,2013-01-06 02:15:00,
2013-01-05 21:30:00,38.5,29.6,30.02,WSW,247,2.7,-999.0,70,-99.99,,,0.00,Acu-Link.com,2013-01-06 02:30:00,
2013-01-05 21:45:00,38.3,29.7,29.99,SSW,202,3.2,-999.0,71,-99.99,,,0.00,Acu-Link.com,2013-01-06 02:45:00,
2013-01-05 22:00:00,38.3,29.7,30.01,WSW,247,3.7,-999.0,71,-99.99,,,0.00,Acu-Link.com,2013-01-06 03:00:00,
2013-01-05 22:16:00,38.3,29.7,30.00,WSW,247,3.7,-999.0,71,-99.99,,,0.00,Acu-Link.com,2013-01-06 03:16:00,
2013-01-05 22:31:00,37.9,29.7,30.01,SW,225,3.2,-999.0,72,-99.99,,,0.00,Acu-Link.com,2013-01-06 03:31:00,
2013-01-05 22:46:00,38.3,29.7,30.01,SW,225,4.7,-999.0,71,-99.99,,,0.00,Acu-Link.com,2013-01-06 03:46:00,
2013-01-05 23:01:00,38.1,29.9,30.01,WSW,247,3.7,-999.0,72,-99.99,,,0.00,Acu-Link.com,2013-01-06 04:01:00,
2013-01-05 23:16:00,38.1,29.9,30.01,SW,225,4.2,-999.0,72,-99.99,,,0.00,Acu-Link.com,2013-01-06 04:16:00,
2013-01-05 23:31:00,38.1,29.5,29.99,SW,225,4.7,-999.0,71,-99.99,,,0.00,Acu-Link.com,2013-01-06 04:31:00,
2013-01-05 23:46:00,37.8,29.3,30.00,SW,225,3.2,-999.0,71,-99.99,,,0.00,Acu-Link.com,2013-01-06 04:46:00,